Time;durP1;ratioP1;P1;durP2;ratioP2;P2;SDS_P1;SDS_P2;PMS_P1;PMS_P2;Temp;Humidity;BMP_temperature;BMP_pressure;BME280_temperature;BME280_humidity;BME280_pressure;Samples;Min_cycle;Max_cycle;Signal;HPM_P1;HPM_P2
2023/10/21 00:00:08;;;;;;;10.20;2.67;;;;;;;;;;5032855;28;20032;-51
2023/10/21 00:02:34;;;;;;;10.05;2.92;;;23.20;96.40;;;;;;5029503;28;20111;-51
2023/10/21 00:04:59;;;;;;;10.30;3.88;;;23.40;96.40;;;;;;5032779;28;20465;-50
2023/10/21 00:07:25;;;;;;;17.92;4.38;;;23.40;96.30;;;;;;5032658;28;20075;-51
2023/10/21 00:09:51;;;;;;;11.60;4.28;;;23.40;96.40;;;;;;5032517;28;20083;-51
2023/10/21 00:12:17;;;;;;;12.13;3.70;;;23.30;96.50;;;;;;5032596;28;20025;-51
2023/10/21 00:14:43;;;;;;;12.40;3.83;;;23.20;96.50;;;;;;5032415;28;20473;-51
2023/10/21 00:17:08;;;;;;;16.67;4.18;;;23.10;96.60;;;;;;5032589;28;20037;-51
2023/10/21 00:19:34;;;;;;;12.55;3.50;;;23.10;96.60;;;;;;5032780;28;20419;-51
2023/10/21 00:22:00;;;;;;;10.63;3.05;;;23.10;96.70;;;;;;5032614;28;20041;-52
2023/10/21 00:24:26;;;;;;;14.57;3.55;;;23.60;96.30;;;;;;5032501;28;20037;-51
2023/10/21 00:26:51;;;;;;;11.95;3.53;;;24.00;96.00;;;;;;5032107;28;20484;-51
2023/10/21 00:29:17;;;;;;;17.08;2.42;;;24.30;95.70;;;;;;4996500;28;20499;-51
2023/10/21 00:31:44;;;;;;;6.15;2.42;;;24.70;95.40;;;;;;5049620;28;20089;-51
2023/10/21 00:34:10;;;;;;;10.80;2.28;;;24.80;95.20;;;;;;5052158;28;20025;-51
2023/10/21 00:36:36;;;;;;;8.43;2.80;;;24.70;95.30;;;;;;5033384;28;20044;-52
2023/10/21 00:39:02;;;;;;;10.35;2.45;;;24.60;95.40;;;;;;5032715;28;20033;-51
2023/10/21 00:41:28;;;;;;;8.75;2.70;;;24.70;95.20;;;;;;5033206;28;20090;-52
2023/10/21 00:43:54;;;;;;;8.73;2.55;;;24.60;95.30;;;;;;5034031;28;20490;-51
2023/10/21 00:46:22;;;;;;;5.65;1.83;;;24.60;95.40;;;;;;5051883;28;20068;-52
2023/10/21 00:48:49;;;;;;;9.93;2.97;;;24.50;95.40;;;;;;5051667;28;20132;-51
2023/10/21 00:51:15;;;;;;;7.55;2.70;;;24.50;95.40;;;;;;5033261;28;20047;-49
2023/10/21 00:53:42;;;;;;;7.10;2.60;;;24.60;95.40;;;;;;5051837;28;20029;-51
2023/10/21 00:56:07;;;;;;;6.40;2.08;;;24.50;95.40;;;;;;5052058;28;20024;-51
2023/10/21 00:58:34;;;;;;;14.35;3.10;;;24.50;95.50;;;;;;5051678;28;20021;-51
2023/10/21 01:01:01;;;;;;;8.25;2.95;;;24.50;95.50;;;;;;5051801;28;20094;-52
2023/10/21 01:03:29;;;;;;;7.22;2.65;;;24.60;95.30;;;;;;5051961;28;20049;-52
2023/10/21 01:05:54;;;;;;;5.75;1.77;;;24.60;95.30;;;;;;5051595;28;20037;-51
2023/10/21 01:08:20;;;;;;;7.85;2.33;;;24.50;95.40;;;;;;5051855;28;20090;-51
2023/10/21 01:10:46;;;;;;;8.73;2.72;;;24.40;95.50;;;;;;5016411;28;20036;-52
2023/10/21 01:13:12;;;;;;;7.15;2.47;;;24.40;95.40;;;;;;5051761;28;20025;-51
2023/10/21 01:15:37;;;;;;;9.23;3.25;;;24.50;95.50;;;;;;5051767;28;20102;-51
2023/10/21 01:18:04;;;;;;;7.57;2.58;;;24.40;95.40;;;;;;5000250;28;20051;-51
2023/10/21 01:20:30;;;;;;;9.70;2.20;;;24.40;95.40;;;;;;5051657;28;20032;-51
2023/10/21 01:22:56;;;;;;;5.38;2.40;;;24.40;95.40;;;;;;5051497;28;20041;-52
2023/10/21 01:25:23;;;;;;;7.35;2.33;;;24.40;95.40;;;;;;5051467;28;20492;-51
2023/10/21 01:27:55;;;;;;;6.05;1.88;;;24.40;95.50;;;;;;5051418;28;20063;-51
2023/10/21 01:30:21;;;;;;;14.32;3.30;;;24.40;95.40;;;;;;5051696;28;20556;-51
2023/10/21 01:32:47;;;;;;;10.25;2.78;;;24.30;95.30;;;;;;5051354;28;20108;-51
2023/10/21 01:35:14;;;;;;;17.40;3.08;;;24.30;95.30;;;;;;5009344;28;20033;-51
2023/10/21 01:37:40;;;;;;;10.75;3.75;;;24.40;95.30;;;;;;5009528;28;20124;-51
2023/10/21 01:40:09;;;;;;;14.23;4.25;;;24.30;95.30;;;;;;4996676;28;20124;-52
2023/10/21 01:42:39;;;;;;;12.40;3.20;;;24.30;95.40;;;;;;4997008;28;20108;-51
2023/10/21 01:45:06;;;;;;;11.20;2.45;;;24.20;95.40;;;;;;5013041;28;20030;-51
2023/10/21 01:47:32;;;;;;;12.63;3.17;;;24.10;95.50;;;;;;4964142;28;20037;-51
2023/10/21 01:50:03;;;;;;;10.80;4.07;;;24.10;95.60;;;;;;5013013;28;20054;-51
2023/10/21 01:52:29;;;;;;;11.90;3.10;;;24.00;95.60;;;;;;5013121;28;20494;-52
2023/10/21 01:54:55;;;;;;;9.75;2.67;;;23.90;95.70;;;;;;5012947;28;20033;-51
2023/10/21 01:57:21;;;;;;;10.25;3.45;;;23.90;95.80;;;;;;5012857;28;20033;-51
2023/10/21 01:59:47;;;;;;;10.85;3.97;;;23.80;95.90;;;;;;4993790;28;20077;-52
2023/10/21 02:02:13;;;;;;;12.13;4.25;;;23.70;96.00;;;;;;5012737;28;20117;-51
2023/10/21 02:04:38;;;;;;;13.23;4.05;;;23.70;96.00;;;;;;5012805;28;20037;-52
2023/10/21 02:07:04;;;;;;;12.30;3.33;;;23.70;96.10;;;;;;5012929;28;20073;-51
2023/10/21 02:09:30;;;;;;;13.25;3.80;;;23.60;96.10;;;;;;5012768;28;20029;-51
2023/10/21 02:11:56;;;;;;;15.70;3.58;;;23.60;96.20;;;;;;5019411;28;20033;-52
2023/10/21 02:14:22;;;;;;;16.17;3.75;;;23.60;96.20;;;;;;5054652;28;20357;-51
2023/10/21 02:16:55;;;;;;;9.90;2.92;;;23.60;96.20;;;;;;5054826;28;20376;-52
2023/10/21 02:19:21;;;;;;;14.43;3.58;;;23.60;96.20;;;;;;5054592;28;20032;-51
2023/10/21 02:21:47;;;;;;;14.90;3.40;;;23.60;96.20;;;;;;5056040;28;20029;-50
2023/10/21 02:24:13;;;;;;;13.45;2.88;;;23.50;96.30;;;;;;5074823;28;20472;-51
2023/10/21 02:26:39;;;;;;;14.95;3.63;;;23.50;96.30;;;;;;5074404;28;20039;-52
2023/10/21 02:29:04;;;;;;;11.68;2.97;;;23.50;96.40;;;;;;5074745;28;20039;-51
2023/10/21 02:31:30;;;;;;;12.52;3.42;;;23.50;96.50;;;;;;5038769;28;20036;-52
2023/10/21 02:33:56;;;;;;;8.57;2.17;;;23.40;96.50;;;;;;5074530;28;20221;-51
2023/10/21 02:36:22;;;;;;;12.00;3.53;;;23.50;96.40;;;;;;5074375;28;20416;-51
2023/10/21 02:38:51;;;;;;;8.23;2.53;;;23.50;96.50;;;;;;5038535;28;20044;-52
2023/10/21 02:41:17;;;;;;;7.47;2.58;;;23.50;96.40;;;;;;5074327;28;20043;-51
2023/10/21 02:43:42;;;;;;;12.02;4.50;;;23.50;96.50;;;;;;5038375;28;20041;-52
2023/10/21 02:46:09;;;;;;;12.77;3.22;;;23.60;96.40;;;;;;5074302;28;20472;-51
2023/10/21 02:48:35;;;;;;;14.07;3.10;;;23.60;96.50;;;;;;5073802;28;20431;-51
2023/10/21 02:51:15;;;;;;;10.50;2.38;;;23.60;96.50;;;;;;5074037;28;20024;-51
2023/10/21 02:53:42;;;;;;;17.10;4.32;;;23.60;96.50;;;;;;5074178;28;20044;-51
2023/10/21 02:56:09;;;;;;;7.90;2.33;;;23.60;96.50;;;;;;5073856;28;20032;-50
2023/10/21 02:58:35;;;;;;;9.07;2.65;;;23.50;96.60;;;;;;5073794;28;20492;-52
2023/10/21 03:01:15;;;;;;;10.57;2.25;;;23.50;96.60;;;;;;5020711;28;20080;-52
2023/10/21 03:03:45;;;;;;;7.93;2.70;;;23.50;96.70;;;;;;5053643;28;20507;-50
2023/10/21 03:06:16;;;;;;;6.82;2.20;;;23.60;96.60;;;;;;4998938;28;20048;-49
2023/10/21 03:08:42;;;;;;;6.30;2.55;;;23.60;96.70;;;;;;5050151;28;20389;-49
2023/10/21 03:11:09;;;;;;;3.92;1.80;;;23.70;96.90;;;;;;5053666;28;20477;-50
2023/10/21 03:13:36;;;;;;;6.72;2.22;;;23.70;96.50;;;;;;5053529;28;20025;-49
2023/10/21 03:16:10;;;;;;;8.30;3.08;;;23.80;96.60;;;;;;5053734;28;20103;-50
2023/10/21 03:18:37;;;;;;;10.23;2.45;;;23.80;96.50;;;;;;5053999;28;20083;-51
2023/10/21 03:21:04;;;;;;;113.65;88.90;;;23.70;96.60;;;;;;5001675;28;20116;-50
2023/10/21 03:23:31;;;;;;;1192.60;999.90;;;23.70;96.70;;;;;;5034128;28;20110;-50
2023/10/21 03:26:01;;;;;;;76.78;60.08;;;23.60;96.70;;;;;;5053905;28;20083;-51
2023/10/21 03:28:28;;;;;;;294.10;270.55;;;23.70;96.70;;;;;;5053463;28;20033;-50
2023/10/21 03:30:58;;;;;;;267.05;247.75;;;23.70;96.70;;;;;;5000126;28;20037;-50
2023/10/21 03:33:25;;;;;;;63.17;56.38;;;23.70;96.80;;;;;;5053693;28;20028;-50
2023/10/21 03:36:01;;;;;;;4.57;2.17;;;23.60;96.90;;;;;;5053347;28;20067;-50
2023/10/21 03:38:27;;;;;;;12.50;2.80;;;23.70;96.80;;;;;;5053349;28;20024;-50
2023/10/21 03:41:04;;;;;;;5.68;2.28;;;23.70;96.80;;;;;;5053006;28;20041;-50
2023/10/21 03:43:30;;;;;;;9.70;2.17;;;23.70;96.90;;;;;;5053208;28;20088;-50
2023/10/21 03:45:58;;;;;;;5.63;1.63;;;23.70;96.90;;;;;;5052922;28;20377;-50
2023/10/21 03:48:24;;;;;;;11.52;2.78;;;23.60;97.10;;;;;;5052778;28;20061;-49
2023/10/21 03:50:50;;;;;;;7.10;2.70;;;23.50;97.30;;;;;;5053125;28;20500;-48
2023/10/21 03:53:16;;;;;;;9.23;3.50;;;23.40;97.40;;;;;;4997895;28;20033;-50
2023/10/21 03:55:43;;;;;;;9.85;2.30;;;23.40;97.40;;;;;;5049375;28;20187;-50
2023/10/21 03:58:10;;;;;;;5.50;1.70;;;23.40;97.50;;;;;;5053093;28;20021;-50
2023/10/21 04:00:37;;;;;;;12.75;2.60;;;23.40;97.50;;;;;;5052430;28;20061;-50
2023/10/21 04:03:03;;;;;;;8.52;2.40;;;23.50;97.50;;;;;;5052519;28;20440;-49
2023/10/21 04:05:29;;;;;;;13.50;2.90;;;23.50;97.50;;;;;;5052991;28;20087;-51
2023/10/21 04:07:55;;;;;;;6.78;2.92;;;23.60;97.40;;;;;;5052781;28;20631;-50
2023/10/21 04:10:21;;;;;;;10.70;3.20;;;23.70;97.40;;;;;;5052640;28;20431;-50
2023/10/21 04:12:47;;;;;;;6.57;1.92;;;23.70;97.40;;;;;;5052381;28;20082;-50
2023/10/21 04:15:13;;;;;;;12.15;3.95;;;23.80;97.40;;;;;;5052590;28;20025;-50
2023/10/21 04:17:39;;;;;;;9.57;2.63;;;23.80;97.30;;;;;;5052453;28;20029;-51
2023/10/21 04:20:06;;;;;;;9.52;2.10;;;24.00;97.30;;;;;;5052264;28;20060;-51
2023/10/21 04:22:32;;;;;;;8.18;2.42;;;24.00;97.30;;;;;;4964779;28;20392;-51
2023/10/21 04:24:58;;;;;;;14.13;3.75;;;24.10;97.30;;;;;;5051535;28;20120;-50
2023/10/21 04:27:24;;;;;;;8.20;2.80;;;24.20;97.20;;;;;;5052065;28;20052;-51
2023/10/21 04:29:49;;;;;;;5.55;1.85;;;24.30;97.10;;;;;;5052130;28;20025;-50
2023/10/21 04:32:15;;;;;;;8.73;3.78;;;24.30;97.20;;;;;;5047425;28;20428;-50
2023/10/21 04:34:41;;;;;;;11.10;2.78;;;24.40;97.10;;;;;;5052340;28;20036;-51
2023/10/21 04:37:07;;;;;;;13.25;2.53;;;24.60;97.00;;;;;;5043843;28;20033;-50
2023/10/21 04:39:33;;;;;;;9.23;2.50;;;24.60;96.90;;;;;;5016809;28;20037;-50
2023/10/21 04:41:59;;;;;;;12.65;3.72;;;24.60;96.90;;;;;;5052362;28;20094;-50
2023/10/21 04:44:24;;;;;;;7.30;2.33;;;24.60;97.20;;;;;;5016726;28;20548;-51
2023/10/21 04:46:50;;;;;;;12.32;3.40;;;24.70;96.90;;;;;;5051963;28;20112;-51
2023/10/21 04:49:16;;;;;;;11.23;2.60;;;24.70;96.80;;;;;;5033131;28;20142;-51
2023/10/21 04:51:42;;;;;;;7.82;2.05;;;24.80;96.90;;;;;;5052199;28;20154;-51
2023/10/21 04:54:08;;;;;;;6.00;2.20;;;24.80;96.80;;;;;;5052024;28;20106;-49
2023/10/21 04:56:34;;;;;;;9.30;2.80;;;24.80;96.70;;;;;;5051931;28;20028;-50
2023/10/21 04:59:00;;;;;;;10.80;2.95;;;24.80;96.80;;;;;;5051874;28;20029;-50
2023/10/21 05:01:26;;;;;;;11.85;2.72;;;24.80;96.80;;;;;;5050963;28;20480;-50
2023/10/21 05:03:52;;;;;;;11.85;3.35;;;24.80;96.80;;;;;;5051763;28;20044;-50
2023/10/21 05:06:17;;;;;;;10.93;2.63;;;24.80;96.90;;;;;;5051627;28;20021;-50
2023/10/21 05:08:43;;;;;;;8.15;1.92;;;24.80;96.90;;;;;;5051733;28;20036;-51
2023/10/21 05:11:09;;;;;;;6.70;2.45;;;;;;;;;;5054177;28;20052;-51
2023/10/21 05:13:35;;;;;;;9.20;3.25;;;;;;;;;;5016890;28;20073;-51
2023/10/21 05:16:01;;;;;;;10.70;3.33;;;;;;;;;;5067530;28;20029;-50
2023/10/21 05:18:27;;;;;;;4.60;2.13;;;;;;;;;;5075947;28;20032;-50
2023/10/21 05:20:54;;;;;;;9.57;2.22;;;;;;;;;;5068749;28;20096;-51
2023/10/21 05:23:20;;;;;;;7.90;2.35;;;;;;;;;;5009110;28;20080;-51
2023/10/21 05:25:46;;;;;;;2.42;1.25;;;;;;;;;;5055443;28;20082;-51
2023/10/21 05:28:12;;;;;;;7.53;2.20;;;;;;;;;;5069582;28;20020;-51
2023/10/21 05:30:39;;;;;;;10.30;4.28;;;;;;;;;;5040086;28;20067;-51
2023/10/21 05:33:05;;;;;;;8.48;4.00;;;;;;;;;;5065622;28;20280;-51
2023/10/21 05:35:32;;;;;;;10.45;4.00;;;;;;;;;;5058705;28;20096;-50
2023/10/21 05:37:58;;;;;;;8.52;3.67;;;;;;;;;;5068119;28;20085;-50
2023/10/21 05:40:25;;;;;;;13.40;3.25;;;;;;;;;;5059398;28;20537;-50
2023/10/21 05:42:51;;;;;;;7.68;2.60;;;;;;;;;;5064026;28;20047;-50
2023/10/21 05:45:17;;;;;;;7.57;2.28;;;;;;;;;;5065922;28;20075;-50
2023/10/21 05:47:43;;;;;;;11.32;3.28;;;;;;;;;;5063970;28;20075;-50
2023/10/21 05:50:09;;;;;;;7.57;2.83;;;;;;;;;;5064193;28;20032;-51
2023/10/21 05:52:35;;;;;;;15.93;5.75;;;24.70;99.90;;;;;;5065405;28;20464;-51
2023/10/21 05:55:04;;;;;;;16.02;3.58;;;24.60;99.90;;;;;;5063708;28;20035;-50
2023/10/21 05:57:30;;;;;;;11.93;5.70;;;24.70;99.90;;;;;;5075273;28;20035;-50
2023/10/21 05:59:55;;;;;;;9.68;2.45;;;24.60;99.90;;;;;;5059455;28;20037;-51
2023/10/21 06:02:21;;;;;;;4.38;1.70;;;24.70;99.90;;;;;;5063816;28;20483;-52
2023/10/21 06:04:47;;;;;;;5.25;1.95;;;;;;;;;;5064288;28;20035;-51
2023/10/21 06:07:13;;;;;;;3.58;1.85;;;24.70;99.90;;;;;;5012704;28;20392;-51
2023/10/21 06:09:39;;;;;;;11.23;2.42;;;24.60;99.90;;;;;;5044379;28;20112;-51
2023/10/21 06:12:05;;;;;;;12.00;2.92;;;24.60;99.90;;;;;;5010564;28;20042;-51
2023/10/21 06:14:31;;;;;;;6.68;2.15;;;24.50;99.90;;;;;;5061205;28;20035;-51
2023/10/21 06:16:58;;;;;;;9.77;2.55;;;24.40;99.90;;;;;;5054869;28;20451;-51
2023/10/21 06:19:23;;;;;;;9.35;3.25;;;24.30;99.90;;;;;;5074724;28;20460;-51
2023/10/21 06:21:49;;;;;;;11.70;3.25;;;24.30;99.90;;;;;;4951027;28;20051;-51
2023/10/21 06:24:15;;;;;;;10.25;2.83;;;24.20;99.90;;;;;;5062922;28;20571;-51
2023/10/21 06:26:41;;;;;;;7.22;2.20;;;24.30;99.90;;;;;;5006939;28;20065;-50
2023/10/21 06:29:08;;;;;;;7.90;2.15;;;24.40;99.90;;;;;;5054632;28;20035;-52
2023/10/21 06:31:34;;;;;;;4.65;1.83;;;24.30;99.90;;;;;;5053716;28;20500;-51
2023/10/21 06:34:00;;;;;;;7.38;2.05;;;24.40;99.90;;;;;;5036502;28;20037;-52
2023/10/21 06:36:26;;;;;;;4.97;1.85;;;24.60;99.90;;;;;;5054213;28;20029;-50
2023/10/21 06:38:52;;;;;;;6.03;2.75;;;24.60;99.90;;;;;;5036001;28;20102;-50
2023/10/21 06:41:18;;;;;;;10.50;2.55;;;24.60;99.90;;;;;;5054163;28;20025;-52
2023/10/21 06:43:44;;;;;;;3.97;1.77;;;24.60;99.90;;;;;;5036303;28;20044;-52
2023/10/21 06:46:10;;;;;;;10.40;2.35;;;24.60;99.90;;;;;;5029143;28;20029;-52
2023/10/21 06:48:36;;;;;;;4.45;1.70;;;;;;;;;;5049728;28;20044;-52
2023/10/21 06:51:04;;;;;;;4.85;1.70;;;;;;;;;;5053583;28;20029;-52
2023/10/21 06:53:29;;;;;;;8.30;2.55;;;24.60;99.90;;;;;;5053868;28;20116;-52
2023/10/21 06:55:55;;;;;;;8.77;3.75;;;24.70;99.90;;;;;;5054016;28;20155;-51
2023/10/21 06:58:21;;;;;;;6.20;1.83;;;24.60;99.90;;;;;;5054007;28;20040;-52
2023/10/21 07:01:07;;;;;;;5.35;2.05;;;24.60;99.90;;;;;;5053778;28;20025;-51
2023/10/21 08:58:18;;;;;;;4.50;2.22;;;24.60;98.20;;;;;;5047321;28;20044;-50
2023/10/21 10:10:38;;;;;;;14.32;4.13;;;24.30;99.90;;;;;;5035511;28;20131;-51
2023/10/21 10:17:11;;;;;;;12.00;3.23;;;24.20;99.90;;;;;;5041129;28;20048;-51
2023/10/21 10:37:59;;;;;;;15.65;6.60;;;23.80;99.90;;;;;;5040337;28;20044;-51
2023/10/21 11:04:48;;;;;;;18.15;4.70;;;25.70;99.90;;;;;;5038235;28;20086;-51
2023/10/21 11:21:10;;;;;;;25.77;6.67;;;25.20;99.90;;;;;;5042019;28;20494;-51
2023/10/21 11:51:54;;;;;;;32.13;8.50;;;;;;;;;;5029792;28;20576;-51
2023/10/21 13:20:17;;;;;;;32.55;10.90;;;;;;;;;;5122046;22;1446642;-65
2023/10/21 13:22:44;;;;;;;29.95;11.57;;;24.00;99.00;;;;;;5058243;28;20032;-64
2023/10/21 13:25:10;;;;;;;31.67;11.30;;;24.60;99.90;;;;;;5056980;28;20086;-63
2023/10/21 13:27:36;;;;;;;35.78;11.15;;;24.00;99.90;;;;;;5056385;28;20029;-63
2023/10/21 13:30:10;;;;;;;32.67;9.52;;;24.00;99.90;;;;;;5043555;28;20021;-62
2023/10/21 13:32:37;;;;;;;23.63;8.70;;;24.00;99.90;;;;;;5010828;28;20111;-62
2023/10/21 13:35:09;;;;;;;27.67;9.52;;;24.00;99.90;;;;;;5049728;28;20445;-61
2023/10/21 13:37:39;;;;;;;34.05;10.20;;;24.00;99.70;;;;;;5047727;28;20488;-61
2023/10/21 13:40:15;;;;;;;33.92;13.38;;;24.00;99.90;;;;;;5044312;28;20060;-64
2023/10/21 13:42:46;;;;;;;34.97;12.02;;;24.00;99.90;;;;;;5004226;28;20041;-63
2023/10/21 13:45:21;;;;;;;38.80;15.45;;;24.00;99.90;;;;;;5004495;28;20550;-64
2023/10/21 13:47:52;;;;;;;31.48;10.25;;;24.00;99.90;;;;;;5043323;28;20067;-61
2023/10/21 13:50:21;;;;;;;34.40;9.55;;;24.00;99.90;;;;;;5039877;28;20434;-64
2023/10/21 13:52:48;;;;;;;34.15;9.02;;;23.90;99.90;;;;;;5046974;28;20128;-63
2023/10/21 13:55:14;;;;;;;25.52;8.35;;;23.90;99.90;;;;;;5043945;28;20033;-63
2023/10/21 13:57:47;;;;;;;25.08;9.10;;;23.90;99.90;;;;;;5001706;28;20075;-62
2023/10/21 14:03:16;;;;;;;32.60;8.95;;;23.90;99.90;;;;;;4986747;28;20067;-63
2023/10/21 14:05:44;;;;;;;28.73;9.35;;;23.80;98.50;;;;;;5045590;28;20059;-63
2023/10/21 14:08:14;;;;;;;26.50;8.13;;;24.00;98.30;;;;;;4998059;28;20033;-64
2023/10/21 14:10:41;;;;;;;30.15;8.40;;;;;;;;;;5047886;28;20029;-63
2023/10/21 14:13:12;;;;;;;32.72;9.23;;;;;;;;;;5041813;28;20028;-64
2023/10/21 14:15:38;;;;;;;30.83;9.63;;;;;;;;;;5047728;28;20033;-64
2023/10/21 14:18:06;;;;;;;31.77;9.85;;;;;;;;;;5046275;28;20041;-65
2023/10/21 14:20:43;;;;;;;34.13;9.15;;;;;;;;;;5037289;28;20083;-64
2023/10/21 14:23:09;;;;;;;31.17;8.18;;;;;;;;;;5050035;28;20120;-63
2023/10/21 14:25:42;;;;;;;32.83;8.52;;;;;;;;;;5044723;28;20028;-65
2023/10/21 14:28:13;;;;;;;32.63;10.35;;;23.60;99.90;;;;;;5041601;28;20456;-64
2023/10/21 14:30:43;;;;;;;31.40;8.32;;;23.60;99.90;;;;;;5044244;28;20047;-73
2023/10/21 14:33:17;;;;;;;25.77;7.57;;;23.60;99.90;;;;;;5044226;28;20120;-75
2023/10/21 14:35:44;;;;;;;30.52;11.73;;;23.60;99.90;;;;;;5044561;28;20500;-76
2023/10/21 14:38:17;;;;;;;37.58;9.15;;;23.60;99.90;;;;;;5043762;28;20099;-68
2023/10/21 14:40:44;;;;;;;36.83;9.98;;;23.60;99.90;;;;;;4992752;28;20041;-68
2023/10/21 14:43:10;;;;;;;35.85;8.40;;;;;;;;;;5048891;28;20438;-66
2023/10/21 14:45:37;;;;;;;25.63;7.70;;;23.40;99.90;;;;;;4998690;28;20033;-67
2023/10/21 14:48:07;;;;;;;31.15;8.88;;;23.40;99.90;;;;;;5046727;28;20044;-67
2023/10/21 14:50:33;;;;;;;24.75;7.13;;;23.30;99.80;;;;;;5050822;28;20037;-68
2023/10/21 14:53:00;;;;;;;30.48;9.02;;;;;;;;;;5042519;28;20035;-66
2023/10/21 14:55:26;;;;;;;30.52;9.70;;;;;;;;;;5045964;28;20029;-69
2023/10/21 14:57:53;;;;;;;30.90;9.23;;;;;;;;;;5042805;28;20124;-65
2023/10/21 15:00:25;;;;;;;23.98;7.82;;;23.10;99.90;;;;;;5045756;28;20519;-72
2023/10/21 15:02:52;;;;;;;32.92;9.57;;;;;;;;;;5045780;28;20076;-73
2023/10/21 15:05:19;;;;;;;25.17;7.55;;;23.20;99.90;;;;;;5047579;28;20527;-70
2023/10/21 15:07:45;;;;;;;28.30;8.52;;;23.20;99.90;;;;;;5047593;28;20049;-73
2023/10/21 15:10:22;;;;;;;28.52;7.63;;;23.10;99.90;;;;;;5049337;28;20075;-76
2023/10/21 15:12:49;;;;;;;30.80;8.95;;;23.10;99.90;;;;;;5042554;28;20060;-75
2023/10/21 15:15:16;;;;;;;20.65;8.77;;;23.10;99.90;;;;;;5046230;28;20028;-74
2023/10/21 15:17:47;;;;;;;33.88;12.93;;;23.00;99.90;;;;;;5041413;28;20368;-76
2023/10/21 15:20:14;;;;;;;28.95;12.93;;;23.00;99.90;;;;;;5045125;28;20104;-74
2023/10/21 15:22:44;;;;;;;35.72;12.98;;;23.00;99.90;;;;;;5042319;28;20033;-76
2023/10/21 15:25:14;;;;;;;34.80;11.10;;;;;;;;;;5045943;28;20028;-75
2023/10/21 15:27:47;;;;;;;35.35;11.32;;;22.90;96.20;;;;;;5044278;28;20021;-71
2023/10/21 15:30:16;;;;;;;23.15;8.88;;;22.90;96.40;;;;;;5043263;28;20095;-72
2023/10/21 15:32:47;;;;;;;26.20;8.75;;;22.90;96.30;;;;;;5006254;28;20038;-70
2023/10/21 15:35:13;;;;;;;26.80;10.25;;;22.80;96.30;;;;;;5001365;28;20129;-77
2023/10/21 15:37:41;;;;;;;25.80;9.60;;;22.80;96.30;;;;;;5007487;28;20046;-71
2023/10/21 15:40:08;;;;;;;26.33;9.80;;;22.80;96.40;;;;;;4962081;28;20065;-77
2023/10/21 15:42:34;;;;;;;23.88;10.07;;;22.80;96.30;;;;;;4963125;28;20097;-74
2023/10/21 15:45:01;;;;;;;27.38;9.98;;;22.80;96.40;;;;;;4945070;28;20552;-76
2023/10/21 15:47:27;;;;;;;29.92;11.43;;;22.80;96.40;;;;;;4962521;28;20075;-72
2023/10/21 15:49:53;;;;;;;24.85;8.02;;;22.90;96.30;;;;;;4959102;28;20491;-72
2023/10/21 15:52:19;;;;;;;24.88;7.40;;;23.00;95.90;;;;;;4956344;28;20155;-71
2023/10/21 15:54:45;;;;;;;15.55;6.63;;;23.20;95.60;;;;;;4963569;28;20043;-72
2023/10/21 15:57:12;;;;;;;20.80;6.63;;;23.40;95.40;;;;;;4963878;28;20506;-73
2023/10/21 15:59:38;;;;;;;22.98;8.20;;;23.50;95.10;;;;;;4966920;28;20433;-72
2023/10/21 16:02:03;;;;;;;27.17;9.27;;;23.60;97.50;;;;;;4936232;28;20039;-70
2023/10/21 16:04:29;;;;;;;53.28;30.27;;;23.70;98.40;;;;;;4996949;28;20467;-72
2023/10/21 16:06:55;;;;;;;61.08;36.92;;;;;;;;;;5000031;28;20073;-72
2023/10/21 16:09:21;;;;;;;53.75;27.17;;;23.70;94.60;;;;;;5004868;28;20464;-69
2023/10/21 16:11:46;;;;;;;75.97;41.33;;;23.70;94.90;;;;;;5032913;28;20037;-70
2023/10/21 16:14:12;;;;;;;30.88;15.38;;;23.80;94.70;;;;;;5042421;28;20037;-69
2023/10/21 16:16:38;;;;;;;31.30;13.75;;;23.70;94.70;;;;;;5039214;28;20049;-69
2023/10/21 16:19:04;;;;;;;26.10;9.80;;;23.80;94.70;;;;;;5047702;28;20056;-68
2023/10/21 16:21:30;;;;;;;21.45;8.10;;;23.80;94.60;;;;;;4978409;28;20060;-67
2023/10/21 16:23:55;;;;;;;23.30;8.35;;;23.80;94.60;;;;;;5040709;28;20067;-66
2023/10/21 16:26:21;;;;;;;28.08;8.48;;;23.80;94.60;;;;;;5044620;28;20037;-58
2023/10/21 16:28:48;;;;;;;21.65;6.25;;;23.80;94.60;;;;;;5040638;28;20041;-66
2023/10/21 16:31:14;;;;;;;26.08;7.18;;;23.70;94.70;;;;;;5047338;28;20032;-66
2023/10/21 16:33:40;;;;;;;29.17;9.57;;;23.60;94.90;;;;;;5044605;28;20381;-69
2023/10/21 16:36:06;;;;;;;23.45;7.65;;;23.60;95.30;;;;;;5041814;28;20424;-72
2023/10/21 16:38:32;;;;;;;20.15;6.97;;;23.60;95.30;;;;;;5042503;28;20082;-73
2023/10/21 16:40:58;;;;;;;21.92;8.23;;;23.50;95.70;;;;;;5042222;28;20033;-72
2023/10/21 16:43:24;;;;;;;15.43;6.20;;;23.30;96.20;;;;;;5047960;28;20934;-76
2023/10/21 16:45:50;;;;;;;17.95;6.70;;;23.20;96.40;;;;;;5042647;28;20021;-72
2023/10/21 16:48:17;;;;;;;22.55;7.43;;;23.10;98.40;;;;;;5046738;28;20473;-72
2023/10/21 16:50:43;;;;;;;25.33;8.32;;;23.10;99.20;;;;;;5045060;28;20514;-74
2023/10/21 16:53:11;;;;;;;26.95;7.25;;;23.00;99.90;;;;;;5045803;28;20460;-71
2023/10/21 16:55:37;;;;;;;17.92;6.10;;;22.90;99.90;;;;;;5041782;28;20033;-72
2023/10/21 16:58:03;;;;;;;25.60;6.32;;;22.80;99.90;;;;;;5034991;28;20029;-78
2023/10/21 17:00:29;;;;;;;20.25;6.40;;;22.70;99.90;;;;;;4961039;28;20089;-75
2023/10/21 17:02:55;;;;;;;19.48;6.07;;;22.70;99.90;;;;;;4968556;28;20070;-74
2023/10/21 17:05:21;;;;;;;24.85;6.20;;;22.60;99.90;;;;;;4965733;28;20081;-75
2023/10/21 17:07:48;;;;;;;20.27;6.40;;;22.50;99.90;;;;;;4960821;28;20070;-76
2023/10/21 17:10:15;;;;;;;17.60;7.57;;;22.50;99.90;;;;;;4964413;28;20031;-75
2023/10/21 17:12:40;;;;;;;23.38;6.88;;;22.50;99.90;;;;;;4969261;28;20033;-76
2023/10/21 17:15:06;;;;;;;16.55;5.45;;;22.50;99.90;;;;;;4963614;28;20042;-76
2023/10/21 17:17:34;;;;;;;15.10;6.32;;;22.50;99.90;;;;;;4975021;28;20050;-74
2023/10/21 17:20:00;;;;;;;19.02;6.30;;;22.50;99.90;;;;;;4962755;28;20147;-75
2023/10/21 17:22:26;;;;;;;17.88;7.22;;;22.50;99.90;;;;;;4963976;28;20086;-60
2023/10/21 17:24:52;;;;;;;18.55;6.00;;;;;;;;;;4958529;28;20046;-60
2023/10/21 17:27:18;;;;;;;22.70;7.53;;;22.30;99.90;;;;;;4967591;28;20031;-60
2023/10/21 17:30:05;;;;;;;17.80;5.57;;;22.20;99.90;;;;;;4964888;28;20466;-60
2023/10/21 17:32:31;;;;;;;13.50;4.30;;;22.20;99.90;;;;;;4947657;28;20042;-59
2023/10/21 17:34:56;;;;;;;22.67;8.48;;;22.10;99.90;;;;;;4985263;28;20043;-60
2023/10/21 17:37:23;;;;;;;16.38;6.13;;;;;;;;;;4984940;28;20046;-59
2023/10/21 17:39:49;;;;;;;10.98;3.35;;;22.10;99.90;;;;;;4981634;28;20533;-60
2023/10/21 17:42:15;;;;;;;7.57;2.70;;;22.00;99.90;;;;;;4981919;28;20653;-59
2023/10/21 17:44:41;;;;;;;6.57;2.67;;;22.00;99.90;;;;;;4963980;28;20043;-60
2023/10/21 17:47:07;;;;;;;11.60;3.80;;;22.10;99.90;;;;;;4981294;28;20054;-60
2023/10/21 17:49:33;;;;;;;6.57;2.30;;;22.00;99.90;;;;;;4967568;28;20035;-60
2023/10/21 17:51:59;;;;;;;4.70;1.83;;;22.00;99.90;;;;;;4980665;28;20058;-60
2023/10/21 17:54:25;;;;;;;7.97;2.80;;;22.00;99.90;;;;;;4986234;28;20621;-59
2023/10/21 17:56:51;;;;;;;7.75;2.78;;;21.90;99.90;;;;;;4978254;28;20050;-59
2023/10/21 17:59:18;;;;;;;7.40;2.47;;;21.80;99.90;;;;;;4978050;28;20129;-59
2023/10/21 18:01:44;;;;;;;5.93;2.35;;;21.80;99.90;;;;;;4988516;28;20038;-59
2023/10/21 18:04:10;;;;;;;4.97;1.75;;;;;;;;;;4981638;28;20038;-59
2023/10/21 18:06:35;;;;;;;3.58;1.73;;;21.50;99.90;;;;;;4955673;28;20121;-60
2023/10/21 18:09:01;;;;;;;6.85;1.30;;;;;;;;;;4960212;28;20129;-59
2023/10/21 18:11:27;;;;;;;3.05;1.38;;;21.10;99.90;;;;;;5039185;28;20387;-59
2023/10/21 18:13:53;;;;;;;6.13;1.50;;;20.20;99.90;;;;;;5040221;28;20026;-59
2023/10/21 18:16:19;;;;;;;5.88;1.50;;;20.90;99.90;;;;;;5042754;28;20033;-59
2023/10/21 18:18:45;;;;;;;4.85;1.33;;;20.80;99.90;;;;;;5039887;28;20475;-60
2023/10/21 18:21:10;;;;;;;5.30;1.30;;;20.80;99.90;;;;;;5041107;28;20021;-60
2023/10/21 18:23:36;;;;;;;4.60;1.15;;;20.70;99.90;;;;;;5043594;28;20079;-59
2023/10/21 18:26:04;;;;;;;2.05;1.25;;;20.50;99.90;;;;;;5044268;28;20047;-60
2023/10/21 18:28:31;;;;;;;4.45;1.40;;;20.50;99.90;;;;;;5046393;28;20425;-59
2023/10/21 18:30:56;;;;;;;4.10;1.40;;;20.50;99.90;;;;;;5013801;28;20125;-59
2023/10/21 18:33:22;;;;;;;4.75;1.20;;;20.30;99.90;;;;;;5046373;28;20104;-59
2023/10/21 18:35:51;;;;;;;4.82;1.17;;;;;;;;;;5045828;28;20029;-60
2023/10/21 18:38:19;;;;;;;3.80;1.13;;;20.10;99.90;;;;;;5045141;28;20118;-60
2023/10/21 18:40:45;;;;;;;4.65;1.48;;;20.20;99.90;;;;;;5043069;28;20040;-59
2023/10/21 18:43:11;;;;;;;7.65;1.70;;;20.20;99.90;;;;;;4967039;28;20083;-59
2023/10/21 18:45:38;;;;;;;2.90;1.38;;;20.20;99.90;;;;;;4992613;28;20175;-59
2023/10/21 18:48:04;;;;;;;6.40;2.13;;;19.90;99.90;;;;;;5038354;28;20028;-60
2023/10/21 18:50:31;;;;;;;7.32;2.33;;;;;;;;;;4944702;28;20037;-60
2023/10/21 18:52:57;;;;;;;5.18;2.30;;;20.00;99.90;;;;;;5042566;28;20362;-59